createdAt,value
2022-08-05T00:02:22.486Z,68.50
2022-08-05T00:04:52.906Z,69.30
2022-08-05T00:07:59.147Z,69.90
2022-08-05T00:10:10.100Z,70.10
2022-08-05T00:12:56.710Z,70.00
2022-08-05T00:15:55.110Z,69.70
2022-08-05T00:18:21.327Z,69.70
2022-08-05T00:20:50.128Z,69.60
2022-08-05T00:23:17.159Z,69.50
2022-08-05T00:25:45.583Z,69.70
2022-08-05T00:28:13.425Z,69.70
2022-08-05T00:30:41.095Z,70.00
2022-08-05T00:34:42.015Z,70.40
2022-08-05T00:36:16.530Z,70.70
2022-08-05T00:38:44.627Z,70.70
2022-08-05T00:41:11.955Z,70.70
2022-08-05T00:43:46.635Z,70.60
2022-08-05T00:46:14.257Z,70.60
2022-08-05T00:48:51.322Z,71.10
2022-08-05T00:51:51.178Z,71.10
2022-08-05T00:54:07.492Z,71.20
2022-08-05T00:56:34.264Z,71.20
2022-08-05T00:59:01.965Z,71.10
2022-08-05T01:01:42.798Z,70.90
2022-08-05T01:04:16.002Z,71.30
2022-08-05T01:06:49.056Z,71.90
2022-08-05T01:09:20.124Z,72.00
2022-08-05T01:11:51.738Z,71.90
2022-08-05T01:14:28.845Z,72.00
2022-08-05T01:17:13.535Z,72.20
2022-08-05T01:20:00.894Z,72.10
2022-08-05T01:22:46.873Z,71.80
2022-08-05T01:25:50.275Z,71.40
2022-08-05T01:28:43.787Z,71.40
2022-08-05T01:31:27.800Z,71.50
2022-08-05T01:33:57.204Z,72.00
2022-08-05T01:37:03.118Z,72.00
2022-08-05T01:39:46.184Z,71.90
2022-08-05T01:42:17.039Z,71.90
2022-08-05T01:44:45.698Z,71.90
2022-08-05T01:47:22.306Z,71.90
2022-08-05T01:50:01.404Z,72.20
2022-08-05T01:52:31.547Z,72.20
2022-08-05T01:55:05.560Z,72.40
2022-08-05T01:58:12.358Z,72.40
2022-08-05T02:00:30.117Z,72.50
2022-08-05T02:03:06.278Z,72.30
2022-08-05T02:05:36.743Z,72.80
2022-08-05T02:08:04.731Z,72.80
2022-08-05T02:10:37.461Z,72.70
2022-08-05T02:13:16.108Z,72.50
2022-08-05T02:16:22.200Z,72.90
2022-08-05T02:19:02.867Z,72.80
2022-08-05T02:21:43.261Z,72.60
2022-08-05T02:24:22.966Z,72.60
2022-08-05T02:26:54.914Z,73.20
2022-08-05T02:29:58.920Z,73.30
2022-08-05T02:32:12.953Z,73.50
2022-08-05T02:34:54.640Z,73.60
2022-08-05T02:37:23.164Z,73.50
2022-08-05T02:39:51.528Z,73.50
2022-08-05T02:42:25.726Z,73.50
2022-08-05T02:44:55.138Z,73.70
2022-08-05T02:47:23.222Z,73.60
2022-08-05T02:49:51.494Z,73.60
2022-08-05T02:52:29.905Z,73.50
2022-08-05T02:54:58.880Z,73.40
2022-08-05T02:58:11.604Z,73.30
2022-08-05T03:00:17.535Z,73.10
2022-08-05T03:02:45.426Z,73.20
2022-08-05T03:05:13.666Z,73.40
2022-08-05T03:08:06.694Z,73.50
2022-08-05T03:10:28.838Z,73.40
2022-08-05T03:15:23.621Z,73.30
2022-08-05T03:17:54.052Z,73.20
2022-08-05T03:20:22.133Z,73.20
2022-08-05T03:22:50.490Z,73.10
2022-08-05T03:25:33.788Z,73.00
2022-08-05T03:28:08.667Z,73.10
2022-08-05T03:30:38.328Z,73.20
2022-08-05T03:33:08.204Z,73.30
2022-08-05T03:35:41.079Z,73.10
2022-08-05T03:38:12.292Z,73.00
2022-08-05T03:40:45.201Z,73.00
2022-08-05T03:44:08.756Z,73.10
2022-08-05T03:46:05.082Z,73.30
2022-08-05T03:48:35.701Z,73.40
2022-08-05T03:52:36.629Z,73.40
2022-08-05T03:55:53.477Z,73.30
2022-08-05T03:56:54.178Z,73.20
2022-08-05T03:59:56.559Z,73.30
2022-08-05T04:02:37.624Z,73.20
2022-08-05T04:05:09.622Z,73.20
2022-08-05T04:07:57.375Z,73.20
2022-08-05T04:10:28.419Z,73.00
2022-08-05T04:12:59.357Z,72.90
2022-08-05T04:15:28.004Z,72.80
2022-08-05T04:18:07.185Z,73.20
2022-08-05T04:20:34.854Z,73.50
2022-08-05T04:23:01.645Z,73.70
2022-08-05T04:25:56.966Z,73.70
2022-08-05T04:28:15.425Z,74.00
2022-08-05T04:30:44.342Z,73.70
2022-08-05T04:33:12.375Z,74.10
2022-08-05T04:36:10.915Z,73.90
2022-08-05T04:38:39.538Z,73.30
2022-08-05T04:41:09.377Z,73.10
2022-08-05T04:43:48.044Z,73.10
2022-08-05T04:46:28.442Z,73.10
2022-08-05T04:48:58.019Z,73.50
2022-08-05T04:51:25.674Z,73.50
2022-08-05T04:53:57.274Z,73.50
2022-08-05T04:56:35.222Z,73.90
2022-08-05T04:59:13.857Z,74.30
2022-08-05T05:02:07.754Z,74.00
2022-08-05T05:04:44.010Z,74.40
2022-08-05T05:07:15.970Z,74.30
2022-08-05T05:09:44.593Z,74.00
2022-08-05T05:12:11.685Z,73.90
2022-08-05T05:14:38.532Z,73.80
2022-08-05T05:17:19.892Z,73.60
2022-08-05T05:19:52.705Z,73.50
2022-08-05T05:22:24.258Z,73.20
2022-08-05T05:24:58.091Z,73.30
2022-08-05T05:27:44.433Z,73.20
2022-08-05T05:30:15.601Z,73.90
2022-08-05T05:32:57.276Z,73.90
2022-08-05T05:35:29.033Z,73.40
2022-08-05T05:38:01.584Z,73.30
2022-08-05T05:40:31.417Z,73.20
2022-08-05T05:43:00.475Z,72.80
2022-08-05T05:45:29.151Z,72.60
2022-08-05T05:48:05.476Z,72.30
2022-08-05T05:50:35.714Z,72.20
2022-08-05T05:53:21.618Z,72.10
2022-08-05T05:55:51.549Z,71.80
2022-08-05T05:58:32.122Z,71.50
2022-08-05T06:01:12.202Z,71.20
2022-08-05T06:04:01.078Z,71.60
2022-08-05T06:06:30.827Z,71.60
2022-08-05T06:08:58.362Z,71.70
2022-08-05T06:11:25.077Z,71.70
2022-08-05T06:13:54.127Z,71.40
2022-08-05T06:16:28.597Z,71.30
2022-08-05T06:19:00.968Z,71.20
2022-08-05T06:21:36.579Z,71.40
2022-08-05T06:24:11.468Z,71.30
2022-08-05T06:26:51.589Z,71.20
2022-08-05T06:29:25.364Z,70.90
2022-08-05T06:32:17.253Z,71.00
2022-08-05T06:34:48.374Z,71.40
2022-08-05T06:37:55.856Z,71.40
2022-08-05T06:40:07.863Z,71.50
2022-08-05T06:42:34.621Z,71.60
2022-08-05T06:45:05.586Z,71.80
2022-08-05T06:48:36.565Z,71.70
2022-08-05T06:50:22.287Z,71.40
2022-08-05T06:52:58.748Z,71.30
2022-08-05T06:55:36.191Z,71.00
2022-08-05T06:58:29.109Z,70.90
2022-08-05T07:00:51.065Z,71.00
2022-08-05T07:03:17.933Z,71.10
2022-08-05T07:05:46.246Z,71.40
2022-08-05T07:08:13.232Z,72.00
2022-08-05T07:10:52.586Z,72.40
2022-08-05T07:13:58.042Z,72.20
2022-08-05T07:18:00.086Z,73.10
2022-08-05T07:22:28.771Z,74.40
2022-08-05T07:25:23.686Z,75.00
2022-08-05T07:27:58.239Z,75.90
2022-08-05T07:30:38.987Z,76.40
2022-08-05T07:33:09.328Z,76.70
2022-08-05T07:36:02.762Z,76.70
2022-08-05T07:38:34.461Z,77.40
2022-08-05T07:42:09.176Z,76.60
2022-08-05T07:44:04.529Z,76.20
2022-08-05T07:46:32.332Z,76.10
2022-08-05T07:49:05.853Z,76.50
2022-08-05T07:51:48.654Z,76.60
2022-08-05T07:54:22.026Z,76.20
2022-08-05T07:57:13.712Z,75.60
2022-08-05T07:59:41.003Z,75.40
2022-08-05T08:02:15.251Z,74.40
2022-08-05T08:04:45.434Z,74.40
2022-08-05T08:07:13.270Z,74.10
2022-08-05T08:09:40.060Z,72.60
2022-08-05T08:12:14.666Z,72.50
2022-08-05T08:14:54.066Z,71.80
2022-08-05T08:17:21.683Z,71.50
2022-08-05T08:20:44.605Z,70.40
2022-08-05T08:22:35.823Z,70.70
2022-08-05T08:25:03.944Z,70.40
2022-08-05T08:27:47.441Z,70.40
2022-08-05T08:30:29.976Z,70.20
2022-08-05T08:33:13.573Z,69.80
2022-08-05T08:35:41.207Z,69.40
2022-08-05T08:38:11.616Z,68.10
2022-08-05T08:40:39.751Z,68.20
2022-08-05T08:45:16.413Z,68.00
2022-08-05T08:45:54.921Z,67.70
2022-08-05T08:49:03.031Z,67.00
2022-08-05T08:52:02.020Z,66.80
2022-08-05T08:53:56.516Z,67.00
2022-08-05T08:56:27.200Z,66.60
2022-08-05T08:58:54.703Z,66.50
2022-08-05T09:01:21.586Z,66.40
2022-08-05T09:03:55.477Z,66.40
2022-08-05T09:06:28.025Z,66.40
2022-08-05T09:08:59.425Z,66.10
2022-08-05T09:11:53.430Z,65.70
2022-08-05T09:14:57.370Z,65.60
2022-08-05T09:17:00.909Z,65.50
2022-08-05T09:19:36.794Z,65.10
2022-08-05T09:22:22.532Z,65.40
2022-08-05T09:24:59.883Z,65.10
2022-08-05T09:28:05.743Z,64.70
2022-08-05T09:30:26.963Z,64.70
2022-08-05T09:33:00.882Z,65.00
2022-08-05T09:35:27.706Z,64.30
2022-08-05T09:38:12.034Z,64.50
2022-08-05T09:40:52.140Z,63.90
2022-08-05T09:43:40.723Z,63.90
2022-08-05T09:46:27.911Z,63.60
2022-08-05T09:49:08.337Z,63.80
2022-08-05T09:51:43.078Z,64.30
2022-08-05T09:54:11.275Z,64.20
2022-08-05T09:56:39.194Z,64.00
2022-08-05T09:59:17.072Z,63.90
2022-08-05T10:01:46.489Z,63.00
2022-08-05T10:04:15.955Z,63.00
2022-08-05T10:06:59.602Z,63.00
2022-08-05T10:09:29.290Z,62.70
2022-08-05T10:12:30.392Z,62.50
2022-08-05T10:15:20.233Z,62.10
2022-08-05T10:18:10.284Z,61.60
2022-08-05T10:20:44.543Z,61.30
2022-08-05T10:23:34.630Z,61.30
2022-08-05T10:26:13.921Z,61.60
2022-08-05T10:28:43.834Z,61.30
2022-08-05T10:32:52.722Z,61.20
2022-08-05T10:34:00.971Z,61.20
2022-08-05T10:36:28.359Z,61.10
2022-08-05T10:39:10.090Z,61.10
2022-08-05T10:42:02.627Z,60.50
2022-08-05T10:44:32.103Z,60.50
2022-08-05T10:47:10.281Z,60.60
2022-08-05T10:50:31.629Z,60.10
2022-08-05T10:52:59.864Z,59.70
2022-08-05T10:55:27.455Z,60.00
2022-08-05T10:58:08.530Z,59.40
2022-08-05T11:00:36.004Z,59.40
2022-08-05T11:03:25.702Z,59.90
2022-08-05T11:06:15.230Z,59.90
2022-08-05T11:09:10.949Z,59.60
2022-08-05T11:11:52.535Z,59.70
2022-08-05T11:14:57.533Z,59.50
2022-08-05T11:17:58.917Z,59.20
2022-08-05T11:20:43.846Z,59.40
2022-08-05T11:24:05.226Z,59.10
2022-08-05T11:26:29.248Z,59.00
2022-08-05T11:29:11.761Z,58.70
2022-08-05T11:31:57.537Z,58.90
2022-08-05T11:34:57.384Z,58.90
2022-08-05T11:38:28.479Z,58.70
2022-08-05T11:41:00.628Z,58.60
2022-08-05T11:44:00.890Z,58.60
2022-08-05T11:46:32.788Z,58.20
2022-08-05T11:49:01.650Z,58.50
2022-08-05T11:51:43.629Z,58.20
2022-08-05T11:54:14.202Z,58.00
2022-08-05T11:56:45.072Z,58.20
2022-08-05T11:59:33.536Z,57.60
2022-08-05T12:02:29.882Z,57.90
2022-08-05T12:05:07.637Z,58.40
2022-08-05T12:08:07.814Z,57.80
2022-08-05T12:10:38.595Z,57.80
2022-08-05T12:13:15.848Z,57.70
2022-08-05T12:15:45.116Z,57.90
2022-08-05T12:18:20.609Z,57.70
2022-08-05T12:20:50.959Z,57.90
2022-08-05T12:23:18.225Z,57.60
2022-08-05T12:25:51.826Z,57.60
2022-08-05T12:28:37.802Z,57.90
2022-08-05T12:31:05.097Z,58.00
2022-08-05T12:33:36.367Z,57.80
2022-08-05T12:36:08.459Z,57.70
2022-08-05T12:38:40.093Z,57.50
2022-08-05T12:41:13.151Z,57.40
2022-08-05T12:43:59.003Z,57.60
2022-08-05T12:46:29.296Z,57.50
2022-08-05T12:49:13.691Z,57.10
2022-08-05T12:52:12.982Z,56.80
2022-08-05T12:54:35.644Z,56.50
2022-08-05T12:57:09.410Z,56.20
2022-08-05T13:01:57.647Z,55.10
2022-08-05T13:02:40.073Z,55.20
2022-08-05T13:05:08.286Z,55.30
2022-08-05T13:08:17.307Z,55.80
2022-08-05T13:10:50.682Z,55.20
2022-08-05T13:14:04.962Z,55.70
2022-08-05T13:16:15.498Z,55.30
2022-08-05T13:18:55.239Z,55.70
2022-08-05T13:21:27.676Z,56.50
2022-08-05T13:23:54.802Z,56.30
2022-08-05T13:26:27.227Z,56.40
2022-08-05T13:28:57.456Z,56.40
2022-08-05T13:32:03.107Z,56.90
2022-08-05T13:34:24.774Z,57.20
2022-08-05T13:36:54.083Z,56.70
2022-08-05T13:40:13.488Z,57.00
2022-08-05T13:42:14.338Z,57.00
2022-08-05T13:44:45.337Z,57.20
2022-08-05T13:48:08.319Z,57.30
2022-08-05T13:50:04.736Z,57.90
2022-08-05T13:55:41.701Z,58.30
2022-08-05T13:58:15.027Z,58.20
2022-08-05T14:00:58.108Z,58.40
2022-08-05T14:03:30.434Z,58.50
2022-08-05T14:06:26.728Z,59.00
2022-08-05T14:08:46.340Z,59.10
2022-08-05T14:11:20.244Z,59.80
2022-08-05T14:13:48.243Z,60.00
2022-08-05T14:16:17.093Z,60.00
2022-08-05T14:18:45.950Z,60.10
2022-08-05T14:22:07.310Z,60.00
2022-08-05T14:24:00.623Z,60.10
2022-08-05T14:26:36.935Z,60.10
2022-08-05T14:29:06.099Z,60.10
2022-08-05T14:32:02.857Z,61.30
2022-08-05T14:34:35.066Z,61.30
2022-08-05T14:37:03.477Z,61.00
2022-08-05T14:39:49.353Z,61.00
2022-08-05T14:42:21.331Z,61.90
2022-08-05T14:44:49.060Z,61.90
2022-08-05T14:47:15.861Z,62.30
2022-08-05T14:49:58.492Z,63.10
2022-08-05T14:52:51.807Z,63.50
2022-08-05T14:55:15.633Z,63.50
2022-08-05T14:57:54.626Z,63.80
2022-08-05T15:00:27.961Z,63.40
2022-08-05T15:02:56.529Z,63.70
2022-08-05T15:05:29.809Z,63.10
2022-08-05T15:08:06.860Z,63.00
2022-08-05T15:10:43.208Z,63.00
2022-08-05T15:13:12.954Z,62.80
2022-08-05T15:15:55.747Z,62.70
2022-08-05T15:18:23.338Z,63.30
2022-08-05T15:20:50.085Z,63.30
2022-08-05T15:23:18.151Z,63.50
2022-08-05T15:25:52.870Z,64.00
2022-08-05T15:28:27.124Z,63.90
2022-08-05T15:30:55.328Z,64.00
2022-08-05T15:34:05.941Z,64.00
2022-08-05T15:36:17.720Z,63.50
2022-08-05T15:40:41.306Z,63.60
2022-08-05T15:41:58.584Z,63.80
2022-08-05T15:44:32.341Z,63.80
2022-08-05T15:47:01.507Z,63.50
2022-08-05T15:49:48.018Z,63.40
2022-08-05T15:52:16.744Z,63.30
2022-08-05T15:54:56.608Z,63.30
2022-08-05T15:57:23.628Z,63.20
2022-08-05T15:59:56.696Z,63.10
2022-08-05T16:02:25.388Z,63.40
2022-08-05T16:04:52.987Z,63.40
2022-08-05T16:07:22.955Z,63.30
2022-08-05T16:09:49.972Z,63.70
2022-08-05T16:12:17.509Z,63.30
2022-08-05T16:14:46.715Z,63.40
2022-08-05T16:17:13.747Z,63.40
2022-08-05T16:20:05.399Z,63.70
2022-08-05T16:22:33.851Z,64.10
2022-08-05T16:25:08.042Z,64.20
2022-08-05T16:27:59.721Z,64.30
2022-08-05T16:30:28.942Z,64.80
2022-08-05T16:32:56.516Z,64.70
2022-08-05T16:35:28.032Z,64.60
2022-08-05T16:38:15.095Z,64.60
2022-08-05T16:40:52.340Z,64.40
2022-08-05T16:43:27.676Z,64.30
2022-08-05T16:46:06.566Z,64.30
2022-08-05T16:48:35.952Z,64.40
2022-08-05T16:51:03.823Z,64.30
2022-08-05T16:54:05.243Z,64.50
2022-08-05T16:56:23.284Z,64.70
2022-08-05T16:58:50.783Z,64.70
2022-08-05T17:01:18.783Z,65.10
2022-08-05T17:03:46.139Z,65.40
2022-08-05T17:06:16.575Z,65.80
2022-08-05T17:08:52.914Z,65.70
2022-08-05T17:11:25.709Z,66.00
2022-08-05T17:14:00.456Z,66.10
2022-08-05T17:16:38.181Z,66.40
2022-08-05T17:19:07.055Z,66.70
2022-08-05T17:21:35.572Z,66.90
2022-08-05T17:24:05.479Z,67.00
2022-08-05T17:26:45.240Z,67.30
2022-08-05T17:29:11.953Z,67.40
2022-08-05T17:31:56.474Z,68.00
2022-08-05T17:34:29.455Z,68.20
2022-08-05T17:36:57.177Z,68.10
2022-08-05T17:39:33.252Z,68.00
2022-08-05T17:42:19.871Z,68.00
2022-08-05T17:44:50.290Z,68.50
2022-08-05T17:47:22.056Z,68.50
2022-08-05T17:49:59.943Z,68.90
2022-08-05T17:52:34.684Z,69.20
2022-08-05T17:55:20.064Z,69.90
2022-08-05T17:57:50.041Z,70.30
2022-08-05T18:00:18.511Z,70.80
2022-08-05T18:02:47.127Z,71.00
2022-08-05T18:05:17.045Z,71.00
2022-08-05T18:07:44.523Z,71.00
2022-08-05T18:10:20.493Z,71.00
2022-08-05T18:12:49.258Z,71.10
2022-08-05T18:15:16.156Z,71.10
2022-08-05T18:18:01.075Z,71.60
2022-08-05T18:20:32.129Z,71.70
2022-08-05T18:23:08.713Z,71.50
2022-08-05T18:25:39.034Z,71.50
2022-08-05T18:28:06.946Z,71.20
2022-08-05T18:30:39.188Z,71.00
2022-08-05T18:33:07.446Z,71.20
2022-08-05T18:35:59.856Z,71.40
2022-08-05T18:38:26.355Z,71.90
2022-08-05T18:42:00.411Z,72.00
2022-08-05T18:43:42.633Z,71.90
2022-08-05T18:46:10.313Z,71.60
2022-08-05T18:48:41.789Z,71.50
2022-08-05T18:52:05.398Z,71.30
2022-08-05T18:54:14.858Z,71.30
2022-08-05T18:56:41.992Z,71.20
2022-08-05T18:59:43.778Z,71.40
2022-08-05T19:02:05.192Z,71.90
2022-08-05T19:05:01.210Z,71.80
2022-08-05T19:07:46.123Z,71.60
2022-08-05T19:10:13.945Z,71.40
2022-08-05T19:12:40.667Z,71.50
2022-08-05T19:15:10.623Z,71.70
2022-08-05T19:18:10.272Z,72.00
2022-08-05T19:20:41.805Z,72.20
2022-08-05T19:24:04.501Z,72.40
2022-08-05T19:26:02.573Z,72.70
2022-08-05T19:28:33.645Z,73.20
2022-08-05T19:31:01.134Z,73.50
2022-08-05T19:33:34.008Z,73.20
2022-08-05T19:36:06.231Z,73.00
2022-08-05T19:38:35.938Z,72.80
2022-08-05T19:41:07.212Z,72.70
2022-08-05T19:44:06.101Z,73.00
2022-08-05T19:46:28.965Z,73.00
2022-08-05T19:49:03.056Z,72.80
2022-08-05T19:52:08.682Z,72.40
2022-08-05T19:54:25.428Z,72.40
2022-08-05T19:56:54.511Z,72.50
2022-08-05T19:59:51.272Z,72.60
2022-08-05T20:02:08.498Z,72.40
2022-08-05T20:04:35.316Z,71.80
2022-08-05T20:07:02.856Z,71.60
2022-08-05T20:09:29.608Z,71.30
2022-08-05T20:12:16.389Z,70.90
2022-08-05T20:14:49.314Z,70.60
2022-08-05T20:17:23.561Z,70.50
2022-08-05T20:19:56.763Z,70.60
2022-08-05T20:22:27.312Z,70.70
2022-08-05T20:24:55.354Z,70.80
2022-08-05T20:27:26.961Z,70.90
2022-08-05T20:29:58.903Z,71.10
2022-08-05T20:32:27.055Z,71.30
2022-08-05T20:34:54.367Z,71.30
2022-08-05T20:38:06.506Z,71.20
2022-08-05T20:40:09.075Z,71.50
2022-08-05T20:42:36.095Z,72.00
2022-08-05T20:45:05.222Z,72.10
2022-08-05T20:47:33.278Z,72.10
2022-08-05T20:50:02.081Z,72.00
2022-08-05T20:52:29.719Z,71.90
2022-08-05T20:54:59.782Z,71.90
2022-08-05T20:57:44.802Z,71.60
2022-08-05T21:00:40.764Z,71.80
2022-08-05T21:03:06.151Z,71.50
2022-08-05T21:05:47.917Z,71.40
2022-08-05T21:08:21.333Z,71.30
2022-08-05T21:10:54.872Z,71.30
2022-08-05T21:13:47.420Z,71.00
2022-08-05T21:16:13.242Z,70.90
2022-08-05T21:18:45.113Z,70.60
2022-08-05T21:21:12.248Z,70.40
2022-08-05T21:23:39.140Z,70.20
2022-08-05T21:26:12.484Z,69.90
2022-08-05T21:28:47.863Z,70.30
2022-08-05T21:31:18.198Z,69.70
2022-08-05T21:33:47.475Z,69.90
2022-08-05T21:36:19.228Z,69.30
2022-08-05T21:38:56.958Z,69.30
2022-08-05T21:41:25.927Z,69.30
2022-08-05T21:44:03.665Z,69.00
2022-08-05T21:46:32.090Z,68.50
2022-08-05T21:49:02.248Z,68.30
2022-08-05T21:52:16.504Z,67.60
2022-08-05T21:54:18.269Z,67.60
2022-08-05T21:57:29.229Z,67.20
2022-08-05T22:00:02.104Z,67.00
2022-08-05T22:02:39.636Z,66.70
2022-08-05T22:05:09.215Z,66.20
2022-08-05T22:07:40.521Z,66.20
2022-08-05T22:10:26.512Z,66.00
2022-08-05T22:12:53.614Z,65.40
2022-08-05T22:16:02.654Z,65.30
2022-08-05T22:18:08.689Z,65.30
2022-08-05T22:20:38.921Z,65.20
2022-08-05T22:24:02.922Z,65.00
2022-08-05T22:26:31.161Z,65.00
2022-08-05T22:28:58.092Z,65.10
2022-08-05T22:31:24.950Z,65.20
2022-08-05T22:34:01.647Z,64.90
2022-08-05T22:36:29.257Z,65.00
2022-08-05T22:38:56.771Z,64.80
2022-08-05T22:41:26.251Z,64.90
2022-08-05T22:44:11.951Z,64.90
2022-08-05T22:46:40.872Z,64.80
2022-08-05T22:50:17.984Z,65.10
2022-08-05T22:52:04.448Z,65.10
2022-08-05T22:54:35.630Z,65.20
2022-08-05T22:57:03.681Z,65.40
2022-08-05T22:59:48.503Z,65.60
2022-08-05T23:02:18.616Z,65.40
2022-08-05T23:04:57.262Z,65.70
2022-08-05T23:07:23.960Z,65.70
2022-08-05T23:10:01.765Z,65.90
2022-08-05T23:12:32.988Z,66.10
2022-08-05T23:15:03.458Z,65.80
2022-08-05T23:17:35.005Z,65.70
2022-08-05T23:20:16.522Z,65.50
2022-08-05T23:22:47.629Z,65.50
2022-08-05T23:25:51.305Z,65.50
2022-08-05T23:28:06.686Z,65.40
2022-08-05T23:30:40.593Z,65.30
2022-08-05T23:33:16.444Z,65.30
2022-08-05T23:35:50.698Z,65.60
2022-08-05T23:38:18.185Z,65.70
2022-08-05T23:40:49.887Z,65.70
2022-08-05T23:43:25.712Z,65.90
2022-08-05T23:46:19.774Z,66.10
2022-08-05T23:49:01.029Z,66.10
2022-08-05T23:51:53.486Z,66.00
2022-08-05T23:54:25.913Z,65.90
2022-08-05T23:56:55.185Z,66.30
2022-08-05T23:59:23.155Z,66.50
